sensor_id;sensor_type;location;lat;lon;timestamp;pressure;altitude;pressure_sealevel;temperature;humidity
36788;BME280;22738;45.560;9.434;2023-05-09T00:04:26;100160.84;;;17.47;100.00
36788;BME280;22738;45.560;9.434;2023-05-09T00:11:07;100153.97;;;17.46;100.00
36788;BME280;22738;45.560;9.434;2023-05-09T00:17:50;100153.69;;;17.39;100.00
36788;BME280;22738;45.560;9.434;2023-05-09T00:24:31;100151.16;;;17.38;100.00
36788;BME280;22738;45.560;9.434;2023-05-09T00:31:12;100139.06;;;17.37;100.00
36788;BME280;22738;45.560;9.434;2023-05-09T00:37:53;100131.03;;;17.38;100.00
36788;BME280;22738;45.560;9.434;2023-05-09T00:44:34;100133.72;;;17.18;100.00
36788;BME280;22738;45.560;9.434;2023-05-09T00:51:15;100131.25;;;17.16;100.00
36788;BME280;22738;45.560;9.434;2023-05-09T00:57:57;100135.16;;;17.22;100.00
36788;BME280;22738;45.560;9.434;2023-05-09T01:04:38;100127.97;;;17.24;100.00
36788;BME280;22738;45.560;9.434;2023-05-09T01:11:31;100127.69;;;17.27;100.00
36788;BME280;22738;45.560;9.434;2023-05-09T01:25:37;100124.97;;;17.28;100.00
36788;BME280;22738;45.560;9.434;2023-05-09T01:32:24;100126.63;;;17.39;100.00
36788;BME280;22738;45.560;9.434;2023-05-09T01:39:12;100134.78;;;17.45;100.00
36788;BME280;22738;45.560;9.434;2023-05-09T01:45:54;100140.47;;;17.50;100.00
36788;BME280;22738;45.560;9.434;2023-05-09T01:52:39;100132.75;;;17.49;100.00
36788;BME280;22738;45.560;9.434;2023-05-09T01:59:22;100131.53;;;17.53;100.00
36788;BME280;22738;45.560;9.434;2023-05-09T02:06:04;100127.53;;;17.58;100.00
36788;BME280;22738;45.560;9.434;2023-05-09T02:12:45;100132.22;;;17.55;100.00
36788;BME280;22738;45.560;9.434;2023-05-09T02:19:27;100130.56;;;17.54;100.00
36788;BME280;22738;45.560;9.434;2023-05-09T02:26:08;100131.13;;;17.57;100.00
36788;BME280;22738;45.560;9.434;2023-05-09T02:32:52;100125.31;;;17.54;100.00
36788;BME280;22738;45.560;9.434;2023-05-09T02:39:35;100109.59;;;17.54;100.00
36788;BME280;22738;45.560;9.434;2023-05-09T02:46:17;100105.47;;;17.61;100.00
36788;BME280;22738;45.560;9.434;2023-05-09T02:52:58;100099.41;;;17.70;100.00
36788;BME280;22738;45.560;9.434;2023-05-09T02:59:39;100105.47;;;17.61;100.00
36788;BME280;22738;45.560;9.434;2023-05-09T03:06:20;100123.13;;;17.59;100.00
36788;BME280;22738;45.560;9.434;2023-05-09T03:13:04;100118.47;;;17.62;100.00
36788;BME280;22738;45.560;9.434;2023-05-09T03:19:48;100118.75;;;17.69;100.00
36788;BME280;22738;45.560;9.434;2023-05-09T03:26:29;100127.31;;;17.71;100.00
36788;BME280;22738;45.560;9.434;2023-05-09T03:33:11;100124.69;;;17.71;100.00
36788;BME280;22738;45.560;9.434;2023-05-09T03:39:52;100128.41;;;17.78;100.00
36788;BME280;22738;45.560;9.434;2023-05-09T03:46:33;100120.41;;;17.79;100.00
36788;BME280;22738;45.560;9.434;2023-05-09T03:53:15;100118.44;;;17.72;100.00
36788;BME280;22738;45.560;9.434;2023-05-09T03:59:58;100115.16;;;18.08;100.00
36788;BME280;22738;45.560;9.434;2023-05-09T04:06:39;100122.91;;;18.00;100.00
36788;BME280;22738;45.560;9.434;2023-05-09T04:13:23;100104.41;;;18.21;100.00
36788;BME280;22738;45.560;9.434;2023-05-09T04:20:05;100102.47;;;17.94;100.00
36788;BME280;22738;45.560;9.434;2023-05-09T04:26:48;100106.59;;;17.77;100.00
36788;BME280;22738;45.560;9.434;2023-05-09T04:33:34;100110.91;;;17.78;100.00
36788;BME280;22738;45.560;9.434;2023-05-09T04:40:18;100116.81;;;17.71;100.00
36788;BME280;22738;45.560;9.434;2023-05-09T04:47:07;100112.94;;;17.75;100.00
36788;BME280;22738;45.560;9.434;2023-05-09T04:53:48;100113.50;;;17.69;100.00
36788;BME280;22738;45.560;9.434;2023-05-09T05:00:32;100126.88;;;17.66;100.00
36788;BME280;22738;45.560;9.434;2023-05-09T05:07:14;100121.25;;;17.80;100.00
36788;BME280;22738;45.560;9.434;2023-05-09T05:13:55;100132.69;;;17.79;100.00
36788;BME280;22738;45.560;9.434;2023-05-09T05:20:39;100139.59;;;17.80;100.00
36788;BME280;22738;45.560;9.434;2023-05-09T05:27:23;100133.22;;;17.73;100.00
36788;BME280;22738;45.560;9.434;2023-05-09T05:34:06;100132.28;;;17.74;100.00
36788;BME280;22738;45.560;9.434;2023-05-09T05:40:47;100138.19;;;17.66;100.00
36788;BME280;22738;45.560;9.434;2023-05-09T05:47:35;100145.53;;;17.82;100.00
36788;BME280;22738;45.560;9.434;2023-05-09T05:54:17;100147.75;;;17.87;100.00
36788;BME280;22738;45.560;9.434;2023-05-09T06:00:58;100138.78;;;18.08;100.00
36788;BME280;22738;45.560;9.434;2023-05-09T06:07:39;100129.81;;;18.20;100.00
36788;BME280;22738;45.560;9.434;2023-05-09T06:14:24;100103.28;;;18.23;100.00
36788;BME280;22738;45.560;9.434;2023-05-09T06:21:06;100101.63;;;18.88;100.00
36788;BME280;22738;45.560;9.434;2023-05-09T06:27:47;100109.63;;;20.13;100.00
36788;BME280;22738;45.560;9.434;2023-05-09T06:34:28;100107.53;;;20.34;100.00
36788;BME280;22738;45.560;9.434;2023-05-09T06:41:10;100111.88;;;19.18;100.00
36788;BME280;22738;45.560;9.434;2023-05-09T06:47:51;100117.91;;;19.82;100.00
36788;BME280;22738;45.560;9.434;2023-05-09T06:54:33;100115.94;;;19.84;100.00
36788;BME280;22738;45.560;9.434;2023-05-09T07:01:14;100125.38;;;19.33;100.00
36788;BME280;22738;45.560;9.434;2023-05-09T07:07:55;100125.16;;;19.26;100.00
36788;BME280;22738;45.560;9.434;2023-05-09T07:14:36;100124.31;;;19.26;100.00
36788;BME280;22738;45.560;9.434;2023-05-09T07:21:17;100119.19;;;19.78;100.00
36788;BME280;22738;45.560;9.434;2023-05-09T07:27:58;100119.25;;;20.22;100.00
36788;BME280;22738;45.560;9.434;2023-05-09T07:34:40;100124.06;;;20.09;100.00
36788;BME280;22738;45.560;9.434;2023-05-09T07:41:21;100118.06;;;19.99;100.00
36788;BME280;22738;45.560;9.434;2023-05-09T07:48:04;100120.75;;;20.07;100.00
36788;BME280;22738;45.560;9.434;2023-05-09T07:54:45;100103.38;;;20.31;100.00
36788;BME280;22738;45.560;9.434;2023-05-09T08:01:26;100100.69;;;20.23;100.00
36788;BME280;22738;45.560;9.434;2023-05-09T08:08:07;100102.09;;;20.61;100.00
36788;BME280;22738;45.560;9.434;2023-05-09T08:14:48;100085.78;;;21.75;100.00
36788;BME280;22738;45.560;9.434;2023-05-09T08:21:29;100080.06;;;23.07;100.00
36788;BME280;22738;45.560;9.434;2023-05-09T08:28:10;100076.97;;;23.34;100.00
36788;BME280;22738;45.560;9.434;2023-05-09T08:34:52;100073.22;;;23.51;100.00
36788;BME280;22738;45.560;9.434;2023-05-09T08:41:34;100060.53;;;22.53;100.00
36788;BME280;22738;45.560;9.434;2023-05-09T08:48:16;100063.88;;;22.07;100.00
36788;BME280;22738;45.560;9.434;2023-05-09T08:54:59;100054.41;;;21.56;100.00
36788;BME280;22738;45.560;9.434;2023-05-09T09:01:40;100057.75;;;21.74;100.00
36788;BME280;22738;45.560;9.434;2023-05-09T09:08:22;100061.03;;;23.11;100.00
36788;BME280;22738;45.560;9.434;2023-05-09T09:15:09;100054.00;;;23.26;100.00
36788;BME280;22738;45.560;9.434;2023-05-09T09:21:57;100058.66;;;24.00;100.00
36788;BME280;22738;45.560;9.434;2023-05-09T09:28:40;100049.50;;;23.88;100.00
36788;BME280;22738;45.560;9.434;2023-05-09T09:35:21;100045.97;;;23.73;100.00
36788;BME280;22738;45.560;9.434;2023-05-09T09:42:09;100051.53;;;23.25;100.00
36788;BME280;22738;45.560;9.434;2023-05-09T09:48:52;100035.63;;;24.09;100.00
36788;BME280;22738;45.560;9.434;2023-05-09T09:55:36;100035.81;;;23.99;100.00
36788;BME280;22738;45.560;9.434;2023-05-09T10:02:22;100027.44;;;22.81;100.00
36788;BME280;22738;45.560;9.434;2023-05-09T10:09:03;100029.09;;;22.82;100.00
36788;BME280;22738;45.560;9.434;2023-05-09T10:15:44;100020.19;;;23.67;100.00
36788;BME280;22738;45.560;9.434;2023-05-09T10:22:26;100006.97;;;23.14;100.00
36788;BME280;22738;45.560;9.434;2023-05-09T10:29:10;99992.31;;;23.34;100.00
36788;BME280;22738;45.560;9.434;2023-05-09T10:35:53;99994.44;;;24.65;100.00
36788;BME280;22738;45.560;9.434;2023-05-09T10:42:36;99984.19;;;23.58;100.00
36788;BME280;22738;45.560;9.434;2023-05-09T10:49:17;99977.53;;;24.37;100.00
36788;BME280;22738;45.560;9.434;2023-05-09T10:55:59;99969.50;;;24.45;100.00
36788;BME280;22738;45.560;9.434;2023-05-09T11:02:45;99948.94;;;24.32;100.00
36788;BME280;22738;45.560;9.434;2023-05-09T11:10:08;99945.59;;;24.74;100.00
36788;BME280;22738;45.560;9.434;2023-05-09T11:17:00;99925.28;;;24.16;100.00
36788;BME280;22738;45.560;9.434;2023-05-09T11:23:44;99916.31;;;23.65;100.00
36788;BME280;22738;45.560;9.434;2023-05-09T11:30:38;99908.81;;;23.54;100.00
36788;BME280;22738;45.560;9.434;2023-05-09T11:37:20;99898.00;;;22.96;100.00
36788;BME280;22738;45.560;9.434;2023-05-09T11:44:01;99894.72;;;23.39;100.00
36788;BME280;22738;45.560;9.434;2023-05-09T11:50:46;99879.28;;;23.20;100.00
36788;BME280;22738;45.560;9.434;2023-05-09T11:57:28;99877.78;;;23.48;100.00
36788;BME280;22738;45.560;9.434;2023-05-09T12:04:10;99862.25;;;24.12;100.00
36788;BME280;22738;45.560;9.434;2023-05-09T12:10:51;99849.75;;;23.54;100.00
36788;BME280;22738;45.560;9.434;2023-05-09T12:17:33;99838.81;;;23.57;100.00
36788;BME280;22738;45.560;9.434;2023-05-09T12:24:19;99834.00;;;23.89;100.00
36788;BME280;22738;45.560;9.434;2023-05-09T12:31:01;99833.16;;;23.74;100.00
36788;BME280;22738;45.560;9.434;2023-05-09T12:37:54;99832.44;;;23.66;100.00
36788;BME280;22738;45.560;9.434;2023-05-09T12:44:35;99811.69;;;23.40;100.00
36788;BME280;22738;45.560;9.434;2023-05-09T12:51:19;99807.16;;;23.49;100.00
36788;BME280;22738;45.560;9.434;2023-05-09T12:58:01;99794.84;;;23.33;100.00
36788;BME280;22738;45.560;9.434;2023-05-09T13:04:43;99786.88;;;23.70;100.00
36788;BME280;22738;45.560;9.434;2023-05-09T13:11:24;99782.88;;;23.74;100.00
36788;BME280;22738;45.560;9.434;2023-05-09T13:18:05;99770.66;;;23.73;100.00
36788;BME280;22738;45.560;9.434;2023-05-09T13:24:46;99767.34;;;24.00;100.00
36788;BME280;22738;45.560;9.434;2023-05-09T13:31:27;99761.53;;;23.61;100.00
36788;BME280;22738;45.560;9.434;2023-05-09T13:38:08;99747.34;;;23.25;100.00
36788;BME280;22738;45.560;9.434;2023-05-09T13:44:49;99734.41;;;23.45;100.00
36788;BME280;22738;45.560;9.434;2023-05-09T13:51:30;99730.91;;;23.88;100.00
36788;BME280;22738;45.560;9.434;2023-05-09T13:58:13;99725.56;;;23.52;100.00
36788;BME280;22738;45.560;9.434;2023-05-09T14:04:54;99697.50;;;23.28;100.00
36788;BME280;22738;45.560;9.434;2023-05-09T14:11:35;99696.44;;;23.23;100.00
36788;BME280;22738;45.560;9.434;2023-05-09T14:18:16;99693.91;;;23.44;100.00
36788;BME280;22738;45.560;9.434;2023-05-09T14:24:57;99679.00;;;23.72;100.00
36788;BME280;22738;45.560;9.434;2023-05-09T14:31:38;99680.00;;;23.71;100.00
36788;BME280;22738;45.560;9.434;2023-05-09T14:38:20;99666.78;;;23.92;100.00
36788;BME280;22738;45.560;9.434;2023-05-09T14:45:01;99666.28;;;23.82;100.00
36788;BME280;22738;45.560;9.434;2023-05-09T14:51:42;99657.50;;;23.46;100.00
36788;BME280;22738;45.560;9.434;2023-05-09T14:58:25;99659.84;;;23.70;100.00
36788;BME280;22738;45.560;9.434;2023-05-09T15:05:06;99652.84;;;23.84;100.00
36788;BME280;22738;45.560;9.434;2023-05-09T15:11:47;99641.41;;;23.33;100.00
36788;BME280;22738;45.560;9.434;2023-05-09T15:18:30;99650.19;;;23.48;100.00
36788;BME280;22738;45.560;9.434;2023-05-09T15:25:11;99631.56;;;23.27;100.00
36788;BME280;22738;45.560;9.434;2023-05-09T15:31:55;99635.59;;;22.94;100.00
36788;BME280;22738;45.560;9.434;2023-05-09T15:38:37;99628.38;;;22.73;100.00
36788;BME280;22738;45.560;9.434;2023-05-09T15:45:18;99623.91;;;22.74;100.00
36788;BME280;22738;45.560;9.434;2023-05-09T15:52:01;99617.28;;;22.55;100.00
36788;BME280;22738;45.560;9.434;2023-05-09T15:58:42;99619.72;;;22.42;100.00
36788;BME280;22738;45.560;9.434;2023-05-09T16:05:23;99607.88;;;22.15;100.00
36788;BME280;22738;45.560;9.434;2023-05-09T16:12:04;99605.88;;;22.17;100.00
36788;BME280;22738;45.560;9.434;2023-05-09T16:18:45;99595.00;;;21.97;100.00
36788;BME280;22738;45.560;9.434;2023-05-09T16:25:26;99586.44;;;21.95;100.00
36788;BME280;22738;45.560;9.434;2023-05-09T16:32:07;99576.94;;;21.86;100.00
36788;BME280;22738;45.560;9.434;2023-05-09T16:38:48;99579.03;;;21.91;100.00
36788;BME280;22738;45.560;9.434;2023-05-09T16:45:29;99576.19;;;21.70;100.00
36788;BME280;22738;45.560;9.434;2023-05-09T16:52:10;99555.78;;;21.64;100.00
36788;BME280;22738;45.560;9.434;2023-05-09T16:58:52;99566.09;;;21.51;100.00
36788;BME280;22738;45.560;9.434;2023-05-09T17:05:33;99567.13;;;21.42;100.00
36788;BME280;22738;45.560;9.434;2023-05-09T17:12:14;99561.16;;;21.48;100.00
36788;BME280;22738;45.560;9.434;2023-05-09T17:18:57;99570.56;;;21.42;100.00
36788;BME280;22738;45.560;9.434;2023-05-09T17:25:38;99582.06;;;21.49;100.00
36788;BME280;22738;45.560;9.434;2023-05-09T17:32:20;99586.41;;;20.95;100.00
36788;BME280;22738;45.560;9.434;2023-05-09T17:39:00;99584.53;;;19.84;100.00
36788;BME280;22738;45.560;9.434;2023-05-09T17:45:41;99588.09;;;19.67;100.00
36788;BME280;22738;45.560;9.434;2023-05-09T17:52:23;99588.03;;;19.35;100.00
36788;BME280;22738;45.560;9.434;2023-05-09T17:59:05;99592.19;;;19.20;100.00
36788;BME280;22738;45.560;9.434;2023-05-09T18:05:46;99588.63;;;18.87;100.00
36788;BME280;22738;45.560;9.434;2023-05-09T18:12:27;99591.63;;;18.67;100.00
36788;BME280;22738;45.560;9.434;2023-05-09T18:19:12;99588.47;;;18.89;100.00
36788;BME280;22738;45.560;9.434;2023-05-09T18:25:53;99594.50;;;18.56;100.00
36788;BME280;22738;45.560;9.434;2023-05-09T18:32:34;99612.06;;;18.37;100.00
36788;BME280;22738;45.560;9.434;2023-05-09T18:39:15;99626.69;;;18.22;100.00
36788;BME280;22738;45.560;9.434;2023-05-09T18:45:56;99650.47;;;18.03;100.00
36788;BME280;22738;45.560;9.434;2023-05-09T18:52:37;99647.75;;;17.95;100.00
36788;BME280;22738;45.560;9.434;2023-05-09T18:59:18;99655.34;;;17.98;100.00
36788;BME280;22738;45.560;9.434;2023-05-09T19:06:00;99649.66;;;17.58;100.00
36788;BME280;22738;45.560;9.434;2023-05-09T19:12:41;99652.13;;;17.50;100.00
36788;BME280;22738;45.560;9.434;2023-05-09T19:19:22;99658.84;;;17.35;100.00
36788;BME280;22738;45.560;9.434;2023-05-09T19:26:03;99658.09;;;17.15;100.00
36788;BME280;22738;45.560;9.434;2023-05-09T19:32:44;99659.88;;;16.78;100.00
36788;BME280;22738;45.560;9.434;2023-05-09T19:39:25;99649.91;;;16.81;100.00
36788;BME280;22738;45.560;9.434;2023-05-09T19:46:08;99651.91;;;16.51;100.00
36788;BME280;22738;45.560;9.434;2023-05-09T19:52:49;99650.81;;;16.53;100.00
36788;BME280;22738;45.560;9.434;2023-05-09T19:59:31;99645.28;;;16.37;100.00
36788;BME280;22738;45.560;9.434;2023-05-09T20:06:12;99641.16;;;16.25;100.00
36788;BME280;22738;45.560;9.434;2023-05-09T20:12:53;99620.25;;;16.06;100.00
36788;BME280;22738;45.560;9.434;2023-05-09T20:19:35;99615.72;;;15.98;100.00
36788;BME280;22738;45.560;9.434;2023-05-09T20:26:16;99606.22;;;15.88;100.00
36788;BME280;22738;45.560;9.434;2023-05-09T20:32:57;99605.91;;;15.81;100.00
36788;BME280;22738;45.560;9.434;2023-05-09T20:39:38;99602.50;;;15.81;100.00
36788;BME280;22738;45.560;9.434;2023-05-09T20:46:19;99602.38;;;15.92;100.00
36788;BME280;22738;45.560;9.434;2023-05-09T20:53:00;99608.00;;;15.38;100.00
36788;BME280;22738;45.560;9.434;2023-05-09T20:59:41;99598.09;;;15.32;100.00
36788;BME280;22738;45.560;9.434;2023-05-09T21:06:22;99591.78;;;15.34;100.00
36788;BME280;22738;45.560;9.434;2023-05-09T21:13:03;99603.28;;;15.52;100.00
36788;BME280;22738;45.560;9.434;2023-05-09T21:19:44;99598.22;;;15.21;100.00
36788;BME280;22738;45.560;9.434;2023-05-09T21:26:25;99594.06;;;15.18;100.00
36788;BME280;22738;45.560;9.434;2023-05-09T21:33:06;99585.13;;;15.11;100.00
36788;BME280;22738;45.560;9.434;2023-05-09T21:39:47;99570.69;;;15.07;100.00
36788;BME280;22738;45.560;9.434;2023-05-09T21:46:32;99579.94;;;15.21;100.00
36788;BME280;22738;45.560;9.434;2023-05-09T21:53:13;99579.34;;;15.08;100.00
36788;BME280;22738;45.560;9.434;2023-05-09T21:59:54;99585.13;;;15.11;100.00
36788;BME280;22738;45.560;9.434;2023-05-09T22:06:35;99593.94;;;15.10;100.00
36788;BME280;22738;45.560;9.434;2023-05-09T22:13:17;99598.97;;;15.02;100.00
36788;BME280;22738;45.560;9.434;2023-05-09T22:19:58;99604.91;;;15.14;100.00
36788;BME280;22738;45.560;9.434;2023-05-09T22:26:39;99609.84;;;15.07;100.00
36788;BME280;22738;45.560;9.434;2023-05-09T22:33:20;99599.94;;;15.01;100.00
36788;BME280;22738;45.560;9.434;2023-05-09T22:40:01;99588.84;;;14.78;100.00
36788;BME280;22738;45.560;9.434;2023-05-09T22:46:43;99578.44;;;14.88;100.00
36788;BME280;22738;45.560;9.434;2023-05-09T22:53:24;99571.44;;;14.58;100.00
36788;BME280;22738;45.560;9.434;2023-05-09T23:00:05;99571.66;;;14.76;100.00
36788;BME280;22738;45.560;9.434;2023-05-09T23:06:46;99559.13;;;14.70;100.00
36788;BME280;22738;45.560;9.434;2023-05-09T23:13:27;99563.16;;;14.74;100.00
36788;BME280;22738;45.560;9.434;2023-05-09T23:20:09;99558.97;;;15.01;100.00
36788;BME280;22738;45.560;9.434;2023-05-09T23:26:50;99545.78;;;14.93;100.00
36788;BME280;22738;45.560;9.434;2023-05-09T23:33:31;99529.72;;;14.98;100.00
36788;BME280;22738;45.560;9.434;2023-05-09T23:40:12;99531.75;;;14.85;100.00
36788;BME280;22738;45.560;9.434;2023-05-09T23:46:53;99528.03;;;14.87;100.00
36788;BME280;22738;45.560;9.434;2023-05-09T23:53:34;99528.94;;;14.77;100.00
